Time;durP1;ratioP1;P1;durP2;ratioP2;P2;SDS_P1;SDS_P2;PMS_P1;PMS_P2;Temp;Humidity;BMP_temperature;BMP_pressure;BME280_temperature;BME280_humidity;BME280_pressure;Samples;Min_cycle;Max_cycle;Signal;HPM_P1;HPM_P2
2023/09/12 00:01:32;;;;;;;11.43;9.07;;;18.80;99.90;;;-141.84;76.50;20903.34;5042198;28;20255;-60
2023/09/12 00:04:01;;;;;;;13.25;9.23;;;18.70;99.90;;;-141.84;76.53;20876.91;5042348;28;20240;-60
2023/09/12 00:06:31;;;;;;;11.02;8.90;;;18.60;99.90;;;-141.84;76.22;20895.19;5033060;28;20225;-59
2023/09/12 00:08:59;;;;;;;9.45;8.48;;;18.60;99.90;;;-141.84;75.82;20874.88;5042335;28;20626;-58
2023/09/12 00:11:27;;;;;;;10.05;8.80;;;18.70;99.90;;;-141.84;75.96;20895.19;5041940;28;20213;-60
2023/09/12 00:13:55;;;;;;;11.32;9.23;;;18.60;99.90;;;-141.84;76.12;20885.03;5041754;28;20308;-59
2023/09/12 00:16:23;;;;;;;12.68;9.15;;;18.60;99.90;;;-141.84;76.33;20878.94;5034587;28;20714;-60
2023/09/12 00:18:52;;;;;;;12.48;8.50;;;18.50;99.90;;;-141.84;76.35;20848.44;5042109;28;20233;-60
2023/09/12 00:21:20;;;;;;;10.82;9.50;;;18.60;99.90;;;-141.84;76.35;20872.84;5041678;28;20700;-61
2023/09/12 00:23:49;;;;;;;10.00;8.48;;;18.50;99.90;;;-141.84;76.37;20866.75;5041404;28;20213;-59
2023/09/12 00:26:17;;;;;;;11.77;9.00;;;18.50;99.90;;;-141.84;76.35;20891.13;5033435;28;20229;-59
2023/09/12 00:28:46;;;;;;;10.15;8.77;;;18.50;99.90;;;-141.84;76.49;20846.41;5042007;28;20225;-59
2023/09/12 00:31:14;;;;;;;11.38;9.10;;;18.50;99.90;;;-141.84;76.34;20858.59;5041740;28;20621;-59
2023/09/12 00:33:42;;;;;;;9.80;8.77;;;18.40;99.90;;;-141.84;76.54;20834.22;5041896;28;20642;-59
2023/09/12 00:36:10;;;;;;;15.60;9.45;;;18.40;99.90;;;-141.84;76.73;20858.59;5039848;28;20210;-60
2023/09/12 00:38:39;;;;;;;11.98;9.50;;;18.40;99.90;;;-141.84;76.83;20811.84;5039193;28;20308;-61
2023/09/12 00:41:09;;;;;;;10.38;9.10;;;18.40;99.90;;;-141.84;76.94;20828.13;5040761;28;20229;-60
2023/09/12 00:43:37;;;;;;;9.85;8.88;;;18.30;99.90;;;-141.84;77.13;20832.19;5040477;28;20319;-60
2023/09/12 00:46:05;;;;;;;11.48;9.07;;;18.40;99.90;;;-141.84;77.64;20801.69;5041408;28;20327;-61
2023/09/12 00:48:35;;;;;;;12.35;8.93;;;18.30;99.90;;;-141.84;77.99;20809.81;5033871;28;20229;-59
2023/09/12 00:51:04;;;;;;;11.93;9.23;;;18.30;99.90;;;-141.84;77.94;20779.31;5033698;28;20717;-60
2023/09/12 00:53:32;;;;;;;12.93;9.02;;;18.20;99.90;;;-141.84;78.32;20752.91;5041185;28;20512;-60
2023/09/12 00:56:02;;;;;;;9.80;8.80;;;18.20;99.90;;;-141.84;78.34;20797.63;5040807;28;20229;-61
2023/09/12 00:58:31;;;;;;;12.25;7.93;;;18.20;99.90;;;-141.84;78.50;20767.13;5032199;28;20414;-59
2023/09/12 01:00:59;;;;;;;11.13;8.55;;;18.20;99.90;;;-141.84;78.55;20771.19;5041196;28;20257;-60
2023/09/12 01:03:28;;;;;;;9.63;8.63;;;18.10;99.90;;;-141.84;78.29;20769.16;5041194;28;20225;-60
2023/09/12 01:06:00;;;;;;;11.00;8.45;;;18.10;99.90;;;-141.84;78.31;20773.22;5041214;28;20724;-59
2023/09/12 01:08:29;;;;;;;11.73;8.32;;;18.10;99.90;;;-141.84;78.06;20732.56;5026697;28;20213;-60
2023/09/12 01:10:59;;;;;;;9.65;8.65;;;18.10;99.90;;;-141.84;77.93;20750.88;5040704;28;20312;-59
2023/09/12 01:13:28;;;;;;;10.48;8.77;;;18.10;99.90;;;-141.84;77.99;20746.81;5041167;28;20581;-59
2023/09/12 01:15:58;;;;;;;11.23;8.63;;;18.20;99.90;;;-141.84;78.04;20742.75;5039670;28;20229;-59
2023/09/12 01:18:26;;;;;;;10.00;8.88;;;18.10;99.90;;;-141.84;77.93;20736.63;5032265;28;20217;-58
2023/09/12 01:21:26;;;;;;;10.20;8.60;;;18.10;99.90;;;-141.84;78.04;20740.69;5041168;28;20292;-60
2023/09/12 01:24:22;;;;;;;10.27;8.35;;;18.10;99.90;;;-141.84;78.18;20779.31;5035191;28;20333;-59
2023/09/12 01:27:04;;;;;;;12.50;8.63;;;18.10;99.90;;;-141.84;77.75;20718.34;5038419;28;20588;-60
2023/09/12 01:29:36;;;;;;;9.98;8.32;;;18.10;99.90;;;-141.84;78.02;20742.75;5040258;28;20339;-59
2023/09/12 01:32:05;;;;;;;10.93;8.88;;;18.00;99.90;;;-141.84;78.16;20728.50;5040064;28;20282;-60
2023/09/12 01:34:33;;;;;;;9.65;8.40;;;18.00;99.90;;;-141.84;78.38;20748.84;5033416;28;20236;-59
2023/09/12 01:37:02;;;;;;;10.50;8.82;;;18.00;99.90;;;-141.84;78.69;20732.56;5043732;28;20311;-59
2023/09/12 01:39:30;;;;;;;9.63;8.32;;;18.00;99.90;;;-141.84;78.19;20759.00;5045201;28;20316;-59
2023/09/12 01:42:02;;;;;;;10.55;8.63;;;18.00;99.90;;;-141.84;77.72;20744.78;5043520;28;20201;-59
2023/09/12 01:44:35;;;;;;;9.38;8.25;;;17.90;99.90;;;-141.84;77.99;20702.09;5036669;28;20216;-59
2023/09/12 01:47:07;;;;;;;9.48;8.48;;;17.90;99.90;;;-141.84;78.10;20732.56;5045119;28;20221;-62
2023/09/12 01:49:39;;;;;;;9.45;8.52;;;17.90;99.90;;;-141.84;78.17;20708.19;5045307;28;20449;-59
2023/09/12 01:52:08;;;;;;;10.10;9.00;;;17.90;99.90;;;-141.84;77.97;20704.13;5045101;28;20231;-60
2023/09/12 01:54:39;;;;;;;9.98;8.52;;;17.90;99.90;;;-141.84;78.29;20695.97;5038674;28;20320;-59
2023/09/12 01:57:08;;;;;;;10.73;9.25;;;17.80;99.90;;;-141.84;78.18;20691.91;5043709;28;20243;-59
2023/09/12 01:59:38;;;;;;;10.18;9.05;;;17.80;99.90;;;-141.84;78.04;20702.09;5044053;28;20241;-60
2023/09/12 02:02:07;;;;;;;9.45;8.45;;;17.90;99.90;;;-141.84;78.01;20728.50;5043733;28;20323;-59
2023/09/12 02:04:35;;;;;;;9.65;8.50;;;17.80;99.90;;;-141.84;77.97;20702.09;5037607;28;20731;-60
2023/09/12 02:07:04;;;;;;;11.50;8.40;;;17.80;99.90;;;-141.84;78.08;20698.00;5044413;28;20287;-59
2023/09/12 02:09:32;;;;;;;11.48;8.40;;;17.80;99.90;;;-141.84;78.18;20685.81;5044165;28;20257;-60
2023/09/12 02:12:00;;;;;;;11.65;8.90;;;18.00;99.90;;;-141.84;78.25;20704.13;5043837;28;20209;-59
2023/09/12 02:14:28;;;;;;;11.00;8.45;;;17.80;99.90;;;-141.84;78.11;20730.53;5037199;28;20210;-60
2023/09/12 02:16:58;;;;;;;12.18;9.10;;;17.80;99.90;;;-141.84;78.00;20677.69;5043164;28;20237;-61
2023/09/12 02:19:26;;;;;;;11.25;8.23;;;17.80;99.90;;;-141.84;78.26;20691.91;5041825;28;20225;-59
2023/09/12 02:21:54;;;;;;;10.00;8.68;;;17.70;99.90;;;-141.84;78.41;20681.75;5044316;28;20298;-61
2023/09/12 02:24:22;;;;;;;10.95;8.48;;;17.70;99.90;;;-141.84;77.93;20681.75;5037424;28;20225;-59
2023/09/12 02:26:51;;;;;;;14.15;9.05;;;17.70;99.90;;;-141.84;78.23;20677.69;5044766;28;20209;-59
2023/09/12 02:29:19;;;;;;;13.25;9.23;;;17.70;99.90;;;-141.84;78.41;20657.34;5043781;28;20218;-60
2023/09/12 02:31:47;;;;;;;9.52;8.50;;;17.70;99.90;;;-141.84;78.64;20661.44;5043566;28;20221;-60
2023/09/12 02:34:16;;;;;;;9.90;8.90;;;17.70;99.90;;;-141.84;78.98;20655.31;5035421;28;20290;-59
2023/09/12 02:36:45;;;;;;;10.02;8.95;;;17.60;99.90;;;-141.84;78.86;20641.09;5043143;28;20271;-59
2023/09/12 02:39:13;;;;;;;11.57;9.35;;;17.60;99.90;;;-141.84;78.86;20655.31;5043354;28;20229;-59
2023/09/12 02:41:42;;;;;;;10.88;8.13;;;17.60;99.90;;;-141.84;77.58;20712.25;5044388;28;20248;-60
2023/09/12 02:44:10;;;;;;;9.93;8.93;;;17.70;99.90;;;-141.84;76.42;20724.44;5035949;28;20316;-58
2023/09/12 02:46:38;;;;;;;12.45;8.63;;;17.80;99.90;;;-141.84;77.03;20748.84;5040848;28;20645;-61
2023/09/12 02:49:07;;;;;;;11.15;8.70;;;17.70;99.90;;;-141.84;77.69;20679.72;5043509;28;20315;-59
2023/09/12 02:51:40;;;;;;;9.60;8.30;;;17.70;99.90;;;-141.84;77.71;20685.81;5042852;28;20274;-60
2023/09/12 02:54:08;;;;;;;10.02;9.02;;;17.70;99.90;;;-141.84;77.55;20679.72;5043076;28;20291;-59
2023/09/12 02:56:36;;;;;;;10.85;9.10;;;17.70;99.90;;;-141.84;77.42;20647.19;5039145;28;20205;-61
2023/09/12 02:59:05;;;;;;;11.30;8.85;;;17.60;99.90;;;-141.84;77.19;20695.97;5043431;28;20953;-59
2023/09/12 03:01:33;;;;;;;11.48;8.90;;;17.60;99.90;;;-141.84;77.55;20673.63;5036320;28;20336;-59
2023/09/12 03:04:01;;;;;;;11.60;8.40;;;17.60;99.90;;;-141.84;77.46;20649.22;5043375;28;20229;-59
2023/09/12 03:06:30;;;;;;;10.25;8.85;;;17.70;99.90;;;-141.84;77.65;20663.47;5035932;28;20983;-59
2023/09/12 03:08:59;;;;;;;13.82;9.95;;;17.60;99.90;;;-141.84;77.52;20622.81;5042701;28;20685;-58
2023/09/12 03:11:28;;;;;;;10.45;8.63;;;17.60;99.90;;;-141.84;77.85;20645.16;5043621;28;20216;-59
2023/09/12 03:13:56;;;;;;;13.73;9.75;;;17.50;99.90;;;-141.84;77.82;20643.13;5043213;28;21042;-58
2023/09/12 03:16:24;;;;;;;12.38;9.10;;;17.50;99.90;;;-141.84;77.64;20643.13;5035792;28;20773;-61
2023/09/12 03:18:53;;;;;;;12.60;9.55;;;17.50;99.90;;;-141.84;77.48;20618.72;5043471;28;20711;-60
2023/09/12 03:21:21;;;;;;;9.90;8.90;;;17.50;99.90;;;-141.84;77.81;20622.81;5042631;28;20228;-59
2023/09/12 03:23:49;;;;;;;9.63;8.63;;;17.50;99.90;;;-141.84;77.87;20594.34;5043672;28;20314;-60
2023/09/12 03:26:19;;;;;;;10.48;9.07;;;17.40;99.90;;;-141.84;77.45;20667.53;5035104;28;20316;-59
2023/09/12 03:28:49;;;;;;;13.20;9.35;;;17.50;99.90;;;-141.84;77.69;20632.97;5042342;28;20256;-59
2023/09/12 03:31:18;;;;;;;13.25;9.70;;;17.40;99.90;;;-141.84;77.92;20612.63;5042702;28;20308;-60
2023/09/12 03:33:49;;;;;;;10.57;9.43;;;17.40;99.90;;;-141.84;77.71;20612.63;5042290;28;20222;-59
2023/09/12 03:36:20;;;;;;;11.23;9.43;;;17.40;99.90;;;-141.84;77.88;20653.28;5034814;28;20316;-59
2023/09/12 03:38:48;;;;;;;10.95;9.18;;;17.30;99.90;;;-141.84;78.13;20608.56;5043281;28;20201;-60
2023/09/12 03:41:18;;;;;;;10.32;9.05;;;17.40;99.90;;;-141.84;78.22;20584.19;5042648;28;20722;-60
2023/09/12 03:43:46;;;;;;;10.82;9.52;;;17.30;99.90;;;-141.84;78.11;20614.66;5041803;28;20231;-59
2023/09/12 03:46:15;;;;;;;13.82;10.02;;;17.30;99.90;;;-141.84;78.27;20653.28;5034132;28;20234;-60
2023/09/12 03:48:43;;;;;;;13.23;11.82;;;17.30;99.90;;;-141.84;76.83;20622.81;5042578;28;20225;-60
2023/09/12 03:51:12;;;;;;;10.88;9.32;;;17.30;99.90;;;-141.84;77.61;20606.53;5042507;28;20202;-59
2023/09/12 03:53:40;;;;;;;11.88;9.05;;;17.40;99.90;;;-141.84;78.00;20606.53;5042845;28;20306;-59
2023/09/12 03:56:12;;;;;;;13.02;9.27;;;17.30;99.90;;;-141.84;78.51;20586.22;5042263;28;20245;-58
2023/09/12 03:58:41;;;;;;;10.93;9.23;;;17.30;99.90;;;-141.84;78.89;20596.38;5041759;28;20324;-59
2023/09/12 04:01:10;;;;;;;12.45;9.23;;;17.30;99.90;;;-141.84;79.25;20578.09;5041258;28;20241;-59
2023/09/12 04:03:38;;;;;;;10.30;9.25;;;17.20;99.90;;;-141.84;78.83;20545.56;5041214;28;20237;-60
2023/09/12 04:06:06;;;;;;;11.48;10.40;;;17.20;99.90;;;-141.84;78.99;20594.34;5041779;28;20193;-59
2023/09/12 04:08:35;;;;;;;10.55;9.45;;;17.20;99.90;;;-141.84;78.82;20567.91;5035645;28;20267;-58
2023/09/12 04:11:03;;;;;;;12.18;10.07;;;17.20;99.90;;;-141.84;78.63;20584.19;5042303;28;20328;-59
2023/09/12 04:13:31;;;;;;;11.63;9.27;;;17.20;99.90;;;-141.84;78.88;20614.66;5041911;28;20822;-58
2023/09/12 04:16:01;;;;;;;14.13;9.77;;;17.20;99.90;;;-141.84;78.58;20565.88;5041813;28;20494;-60
2023/09/12 04:18:29;;;;;;;11.80;9.05;;;17.20;99.90;;;-141.84;78.94;20626.88;5034142;28;20225;-60
2023/09/12 04:20:58;;;;;;;12.90;9.50;;;17.20;99.90;;;-141.84;79.05;20602.47;5041152;28;20229;-59
2023/09/12 04:23:26;;;;;;;14.20;9.60;;;17.20;99.90;;;-141.84;78.43;20590.28;5040700;28;20308;-60
2023/09/12 04:25:54;;;;;;;10.18;9.18;;;17.20;99.90;;;-141.84;77.84;20630.94;5041563;28;20723;-59
2023/09/12 04:28:26;;;;;;;12.25;9.93;;;17.20;99.90;;;-141.84;77.69;20610.59;5033978;28;20245;-61
2023/09/12 04:31:04;;;;;;;10.77;9.65;;;17.20;99.90;;;-141.84;77.56;20604.50;5041011;28;20269;-59
2023/09/12 04:33:32;;;;;;;10.00;9.07;;;17.30;99.90;;;-141.84;78.02;20612.63;5041705;28;20228;-59
2023/09/12 04:36:02;;;;;;;13.13;9.95;;;17.30;99.90;;;-141.84;77.88;20590.28;5039259;28;20209;-59
2023/09/12 04:38:32;;;;;;;10.57;9.57;;;17.30;99.90;;;-141.84;78.09;20622.81;5033799;28;20210;-59
2023/09/12 04:41:04;;;;;;;11.27;9.68;;;17.30;99.90;;;-141.84;78.31;20608.56;5041171;28;20704;-60
2023/09/12 04:43:33;;;;;;;10.60;9.23;;;17.20;99.90;;;-141.84;78.39;20527.25;5042175;28;20681;-60
2023/09/12 04:46:02;;;;;;;10.40;9.35;;;17.20;99.90;;;-141.84;78.89;20569.94;5041716;28;20655;-60
2023/09/12 04:48:31;;;;;;;10.38;9.18;;;17.20;99.90;;;-141.84;78.68;20588.25;5033834;28;20648;-58
2023/09/12 04:50:59;;;;;;;10.48;9.30;;;17.20;99.90;;;-141.84;78.25;20561.81;5041444;28;20217;-59
2023/09/12 04:53:33;;;;;;;10.63;9.63;;;17.20;99.90;;;-141.84;78.16;20614.66;5039923;28;20724;-59
2023/09/12 04:56:02;;;;;;;13.00;9.98;;;17.20;99.90;;;-141.84;78.33;20608.56;5038992;28;20228;-59
2023/09/12 04:58:30;;;;;;;11.65;9.43;;;17.20;99.90;;;-141.84;78.41;20580.13;5029733;28;21015;-60
2023/09/12 05:00:58;;;;;;;13.50;9.63;;;17.10;99.90;;;-141.84;78.61;20614.66;5041186;28;20229;-60
2023/09/12 05:03:28;;;;;;;11.25;10.15;;;17.20;99.90;;;-141.84;78.40;20620.78;5040852;28;20257;-59
2023/09/12 05:05:58;;;;;;;11.82;10.25;;;17.20;99.90;;;-141.84;78.31;20578.09;5041235;28;20665;-61
2023/09/12 05:08:26;;;;;;;13.45;10.63;;;17.30;99.90;;;-141.84;77.78;20661.44;5033935;28;20254;-59
2023/09/12 05:10:54;;;;;;;12.40;10.02;;;17.30;99.90;;;-141.84;77.78;20600.44;5038960;28;20689;-60
2023/09/12 05:13:22;;;;;;;10.13;8.98;;;17.30;99.90;;;-141.84;77.99;20590.28;5041208;28;20235;-59
2023/09/12 05:15:50;;;;;;;13.13;9.43;;;17.30;99.90;;;-141.84;78.29;20630.94;5041174;28;20601;-60
2023/09/12 05:18:18;;;;;;;11.07;9.98;;;17.30;99.90;;;-141.84;78.23;20661.44;5033110;28;20719;-59
2023/09/12 05:20:48;;;;;;;13.50;10.18;;;17.40;99.90;;;-141.84;77.72;20643.13;5033453;28;20727;-60
2023/09/12 05:23:17;;;;;;;10.30;9.05;;;17.50;99.90;;;-141.84;77.74;20622.81;5041016;28;20228;-59
2023/09/12 05:25:45;;;;;;;10.52;9.27;;;17.50;99.90;;;-141.84;77.52;20687.84;5041250;28;20310;-58
2023/09/12 05:28:15;;;;;;;11.02;9.50;;;17.60;99.90;;;-141.84;76.87;20679.72;5031425;28;20237;-59
2023/09/12 05:30:44;;;;;;;12.88;9.98;;;17.60;99.90;;;-141.84;75.83;20706.16;5040285;28;20232;-60
2023/09/12 05:33:12;;;;;;;12.07;10.30;;;17.80;99.90;;;-141.84;73.77;20801.69;5040524;28;20579;-58
2023/09/12 05:35:40;;;;;;;11.90;9.77;;;18.00;99.90;;;-141.84;74.16;20807.78;5041443;28;20201;-59
2023/09/12 05:38:10;;;;;;;14.93;10.88;;;18.10;99.90;;;-141.84;73.46;20820.00;5033450;28;20237;-58
2023/09/12 05:40:38;;;;;;;17.33;10.63;;;18.40;99.90;;;-141.84;72.04;20905.38;5041172;28;20265;-59
2023/09/12 05:43:06;;;;;;;11.65;10.43;;;18.30;99.90;;;-141.84;71.59;20941.97;5040664;28;20225;-60
2023/09/12 05:45:35;;;;;;;11.65;9.80;;;18.50;99.90;;;-141.84;71.32;20883.00;5040324;28;20304;-59
2023/09/12 05:48:04;;;;;;;14.95;9.55;;;18.60;99.90;;;-141.84;71.47;20921.63;5040422;28;20886;-60
2023/09/12 05:50:32;;;;;;;11.43;9.50;;;18.70;99.90;;;-141.84;71.78;20946.03;5033280;28;20594;-60
2023/09/12 05:53:00;;;;;;;10.43;8.95;;;18.70;99.90;;;-141.84;72.11;20903.34;5040184;28;20752;-61
2023/09/12 05:55:30;;;;;;;11.52;9.40;;;18.80;99.90;;;-141.84;71.30;20968.38;5040004;28;20217;-60
2023/09/12 05:57:58;;;;;;;11.43;10.02;;;18.90;99.90;;;-141.84;70.55;20992.78;5040284;28;20700;-60
2023/09/12 06:00:26;;;;;;;12.30;10.02;;;18.90;99.90;;;-141.84;69.76;21021.25;5033879;28;20312;-60
2023/09/12 06:02:55;;;;;;;13.90;9.48;;;19.00;99.90;;;-141.84;70.29;21025.31;5041084;28;20315;-59
2023/09/12 06:05:23;;;;;;;11.85;9.75;;;19.10;99.90;;;-141.84;70.80;21017.19;5040263;28;20222;-60
2023/09/12 06:07:51;;;;;;;15.23;10.63;;;19.10;99.90;;;-141.84;70.29;21029.38;5040230;28;20383;-60
2023/09/12 06:10:20;;;;;;;16.27;10.20;;;19.10;99.90;;;-141.84;70.20;20996.84;5033507;28;20228;-61
2023/09/12 06:12:50;;;;;;;11.35;10.07;;;19.10;99.90;;;-141.84;69.69;21029.38;5040827;28;20632;-59
2023/09/12 06:15:18;;;;;;;11.98;10.45;;;19.20;99.90;;;-141.84;69.79;21072.06;5040293;28;20237;-60
2023/09/12 06:17:47;;;;;;;10.60;9.50;;;19.30;99.90;;;-141.84;68.99;21102.56;5040850;28;20205;-60
2023/09/12 06:20:15;;;;;;;8.60;7.78;;;19.40;99.90;;;-141.84;69.18;21116.78;5038105;28;20596;-60
2023/09/12 06:22:44;;;;;;;12.48;10.38;;;19.40;99.90;;;-141.84;68.13;21163.56;5044176;28;20241;-59
2023/09/12 06:25:12;;;;;;;11.98;9.90;;;19.60;99.90;;;-141.84;67.92;21181.84;5042634;28;20239;-59
2023/09/12 06:27:40;;;;;;;14.65;9.60;;;19.70;99.90;;;-141.84;67.45;21210.31;5042004;28;20245;-61
2023/09/12 06:30:12;;;;;;;13.77;9.02;;;19.70;99.90;;;-141.84;67.87;21171.69;5042589;28;20585;-61
2023/09/12 06:32:40;;;;;;;12.27;9.98;;;19.80;99.90;;;-141.84;67.71;21228.63;5042469;28;20700;-60
2023/09/12 06:35:10;;;;;;;11.15;9.02;;;19.80;99.90;;;-141.84;68.09;21204.22;5041942;28;20233;-58
2023/09/12 06:37:39;;;;;;;17.52;9.77;;;19.80;99.90;;;-141.84;67.81;21222.53;5041282;28;20322;-59
2023/09/12 06:40:09;;;;;;;10.50;8.98;;;19.90;99.90;;;-141.84;67.93;21234.72;5042007;28;20308;-59
2023/09/12 06:42:38;;;;;;;11.18;9.52;;;19.90;99.90;;;-141.84;68.30;21190.00;5041207;28;20237;-60
2023/09/12 06:45:09;;;;;;;15.75;10.10;;;20.00;99.90;;;-141.84;67.52;21242.84;5041491;28;20722;-60
2023/09/12 06:47:38;;;;;;;12.48;9.70;;;20.00;99.90;;;-141.84;67.77;21265.22;5043279;28;20220;-60
2023/09/12 06:50:07;;;;;;;9.82;8.65;;;20.10;99.90;;;-141.84;68.11;21226.59;5042593;28;20306;-60
2023/09/12 06:52:39;;;;;;;11.25;9.10;;;20.10;99.90;;;-141.84;67.99;21242.84;5042448;28;20221;-60
2023/09/12 06:55:08;;;;;;;10.45;8.70;;;20.20;99.90;;;-141.84;67.88;21257.09;5042617;28;20240;-59
2023/09/12 06:57:36;;;;;;;10.32;9.23;;;20.20;99.90;;;-141.84;67.88;21263.19;5042164;28;20752;-60
2023/09/12 07:00:07;;;;;;;12.88;9.20;;;20.30;99.90;;;-141.84;67.75;21293.69;5042789;28;20205;-61
2023/09/12 07:02:37;;;;;;;11.65;8.75;;;20.30;99.90;;;-141.84;67.59;21301.81;5036752;28;20229;-59
2023/09/12 07:05:06;;;;;;;15.00;8.90;;;20.40;99.90;;;-141.84;67.00;21389.22;5042744;28;20298;-59
2023/09/12 07:07:35;;;;;;;14.18;9.07;;;20.50;99.90;;;-141.84;67.00;21366.88;5042419;28;20805;-59
2023/09/12 07:10:04;;;;;;;17.23;10.35;;;20.60;99.90;;;-141.84;66.46;21379.06;5042396;28;20233;-60
2023/09/12 07:12:50;;;;;;;12.05;8.98;;;20.70;99.90;;;-141.84;66.44;21383.13;5043096;28;20336;-60
2023/09/12 07:15:18;;;;;;;18.65;9.40;;;20.70;99.90;;;-141.84;66.73;21399.41;5042543;28;20593;-60
2023/09/12 07:17:48;;;;;;;10.45;8.15;;;20.80;99.90;;;-141.84;66.73;21407.53;5042760;28;20210;-60
2023/09/12 07:20:17;;;;;;;11.48;8.38;;;20.80;99.90;;;-141.84;66.54;21423.81;5035225;28;20225;-60
2023/09/12 07:22:46;;;;;;;13.38;9.27;;;20.90;99.90;;;-141.84;66.67;21403.47;5043701;28;20717;-60
2023/09/12 07:25:16;;;;;;;17.65;9.52;;;20.90;99.90;;;-141.84;64.78;21492.94;5044427;28;20345;-59
2023/09/12 07:27:44;;;;;;;15.35;9.63;;;21.10;99.90;;;-141.84;65.86;21488.88;5044182;28;20229;-59
2023/09/12 07:30:13;;;;;;;11.32;8.80;;;21.10;99.90;;;-141.84;65.91;21478.69;5037849;28;20205;-60
2023/09/12 07:32:41;;;;;;;16.27;9.52;;;21.20;99.90;;;-141.84;65.75;21529.53;5044913;28;20209;-60
2023/09/12 07:35:10;;;;;;;16.70;9.05;;;21.30;99.90;;;-141.84;65.85;21527.50;5043326;28;20264;-59
2023/09/12 07:37:39;;;;;;;13.40;9.45;;;21.40;99.90;;;-141.84;65.79;21547.81;5044140;28;20213;-60
2023/09/12 07:40:10;;;;;;;15.77;9.50;;;21.40;99.90;;;-141.84;65.02;21612.88;5043907;28;20229;-59
2023/09/12 07:42:39;;;;;;;11.43;8.52;;;21.50;99.90;;;-141.84;65.16;21606.78;5044012;28;20324;-60
2023/09/12 07:45:08;;;;;;;16.05;8.95;;;21.70;99.90;;;-141.84;64.46;21690.16;5043958;28;20205;-60
2023/09/12 07:47:37;;;;;;;14.15;9.43;;;21.70;99.90;;;-141.84;63.89;21680.00;5044740;28;20213;-59
2023/09/12 07:50:07;;;;;;;13.23;8.10;;;21.90;99.90;;;-141.84;64.06;21708.47;5044313;28;20260;-60
2023/09/12 07:52:37;;;;;;;11.13;8.15;;;22.00;99.90;;;-141.84;64.07;21724.72;5038602;28;20248;-59
2023/09/12 07:55:08;;;;;;;12.95;8.13;;;22.30;99.90;;;-141.84;64.13;21732.84;5043502;28;20237;-59
2023/09/12 07:57:36;;;;;;;14.13;10.18;;;22.30;99.90;;;-141.84;63.42;21767.44;5043125;28;20253;-61
2023/09/12 08:00:10;;;;;;;12.60;9.13;;;22.20;99.90;;;-141.84;63.07;21777.59;5043687;28;20219;-60
2023/09/12 08:02:39;;;;;;;15.40;8.98;;;22.40;99.90;;;-141.84;62.90;21787.75;5043627;28;20314;-60
2023/09/12 08:05:08;;;;;;;17.77;10.32;;;22.30;99.90;;;-141.84;63.57;21789.78;5043572;28;20733;-59
2023/09/12 08:07:38;;;;;;;13.38;9.07;;;22.30;99.90;;;-141.84;63.71;21781.66;5043473;28;20237;-59
2023/09/12 08:10:08;;;;;;;16.20;9.40;;;22.40;99.90;;;-141.84;63.44;21789.78;5043562;28;20282;-59
2023/09/12 08:12:40;;;;;;;14.50;9.65;;;22.40;99.90;;;-141.84;63.56;21828.44;5038099;28;20228;-59
2023/09/12 08:15:10;;;;;;;16.55;10.13;;;22.50;99.90;;;-141.84;63.50;21873.16;5043606;28;20239;-60
2023/09/12 08:17:39;;;;;;;14.57;9.70;;;22.50;99.90;;;-141.84;63.82;21869.09;5044217;28;20661;-58
2023/09/12 08:20:11;;;;;;;14.05;10.35;;;22.60;99.90;;;-141.84;63.76;21907.72;5043435;28;20708;-59
2023/09/12 08:22:40;;;;;;;14.73;9.70;;;22.70;99.90;;;-141.84;63.80;21899.59;5039939;28;20244;-60
2023/09/12 08:25:09;;;;;;;14.70;10.32;;;22.80;99.90;;;-141.84;63.61;21891.47;5042981;28;20719;-59
2023/09/12 08:27:38;;;;;;;16.92;11.20;;;22.90;99.90;;;-141.84;63.82;21919.94;5042675;28;20736;-58
2023/09/12 08:30:08;;;;;;;16.65;11.23;;;22.90;99.90;;;-141.84;63.64;21962.63;5043009;28;20205;-61
2023/09/12 08:32:39;;;;;;;15.55;11.48;;;23.00;99.90;;;-141.84;63.40;21972.81;5037955;28;20209;-59
2023/09/12 08:35:08;;;;;;;18.27;11.60;;;23.20;99.90;;;-141.84;63.42;22009.41;5043482;28;20228;-60
2023/09/12 08:37:36;;;;;;;15.27;11.95;;;23.30;99.90;;;-141.84;63.17;22033.81;5042867;28;20314;-59
2023/09/12 08:40:08;;;;;;;16.88;11.80;;;23.40;99.90;;;-141.84;63.01;22050.06;5042905;28;20237;-61
2023/09/12 08:42:44;;;;;;;17.80;14.05;;;23.50;99.90;;;-141.84;62.66;22102.94;5037036;28;20233;-60
2023/09/12 08:45:15;;;;;;;13.98;12.05;;;23.50;99.90;;;-141.84;62.93;22021.59;5042808;28;20215;-60
2023/09/12 08:47:45;;;;;;;16.50;10.85;;;23.50;99.90;;;-141.84;63.54;22048.03;5043305;28;20229;-59
2023/09/12 08:50:17;;;;;;;19.27;12.57;;;23.60;99.90;;;-141.84;63.51;22048.03;5035447;28;20741;-60
2023/09/12 08:52:47;;;;;;;14.68;12.65;;;23.60;99.90;;;-141.84;63.28;22060.25;5042595;28;20720;-61
2023/09/12 08:55:37;;;;;;;26.25;13.43;;;23.60;99.90;;;-141.84;62.34;22131.41;5042630;28;20312;-60
2023/09/12 08:58:06;;;;;;;18.95;12.50;;;23.70;99.90;;;-141.84;62.43;22129.38;5042381;28;20307;-59
2023/09/12 09:00:37;;;;;;;20.63;13.07;;;23.80;99.90;;;-141.84;62.30;22192.44;5035630;28;20240;-59
2023/09/12 09:03:06;;;;;;;16.65;13.68;;;24.00;99.90;;;-141.84;61.31;22229.03;5041769;28;20312;-60
2023/09/12 09:05:37;;;;;;;21.48;13.27;;;24.10;99.90;;;-141.84;61.64;22241.22;5043003;28;20205;-59
2023/09/12 09:08:07;;;;;;;18.63;13.15;;;24.20;99.90;;;-141.84;62.04;22210.72;5042278;28;20225;-60
2023/09/12 09:10:37;;;;;;;17.35;13.10;;;24.30;99.90;;;-141.84;61.03;22328.69;5036281;28;20326;-59
2023/09/12 09:13:17;;;;;;;15.52;13.13;;;24.40;99.90;;;-141.84;61.29;22334.78;5042680;28;20220;-60
2023/09/12 09:15:46;;;;;;;18.67;12.80;;;24.60;99.90;;;-141.84;60.92;22385.63;5042176;28;20224;-60
2023/09/12 09:18:14;;;;;;;20.23;14.18;;;24.70;99.90;;;-141.84;60.90;22365.28;5035235;28;20711;-61
2023/09/12 09:20:45;;;;;;;17.08;12.65;;;24.70;99.90;;;-141.84;61.07;22389.69;5042530;28;20691;-59
2023/09/12 09:23:13;;;;;;;18.15;13.23;;;24.80;99.90;;;-141.84;61.11;22432.41;5023044;28;20240;-61
2023/09/12 09:25:53;;;;;;;16.08;13.35;;;24.90;99.90;;;-141.84;62.03;22397.81;5032797;28;20268;-58
2023/09/12 09:28:23;;;;;;;17.15;14.05;;;24.90;99.90;;;-141.84;61.52;22416.13;5034959;28;20717;-59
2023/09/12 09:30:54;;;;;;;16.65;12.65;;;24.90;99.90;;;-141.84;61.62;22430.38;5042543;28;20220;-59
2023/09/12 09:33:23;;;;;;;22.00;13.88;;;24.90;99.90;;;-141.84;62.04;22434.44;5042654;28;20221;-61
2023/09/12 09:35:53;;;;;;;20.98;13.88;;;24.90;99.90;;;-141.84;62.42;22401.88;5042866;28;20312;-59
2023/09/12 09:38:22;;;;;;;18.52;13.70;;;24.80;99.90;;;-141.84;61.56;22436.47;5034449;28;20711;-59
2023/09/12 09:40:52;;;;;;;15.70;13.98;;;24.90;99.90;;;-141.84;61.70;22462.91;5041627;28;20229;-60
2023/09/12 09:43:22;;;;;;;25.58;16.90;;;24.90;99.90;;;-141.84;61.50;22523.91;5041901;28;20229;-59
2023/09/12 09:45:50;;;;;;;20.88;15.30;;;25.10;99.90;;;-141.84;61.04;22473.06;5041813;28;20224;-60
2023/09/12 09:48:24;;;;;;;19.65;15.18;;;25.10;99.90;;;-141.84;61.38;22481.22;5034240;28;20233;-60
2023/09/12 09:50:52;;;;;;;16.90;14.05;;;25.00;99.90;;;-141.84;61.74;22483.25;5042577;28;20292;-60
2023/09/12 09:53:27;;;;;;;18.27;15.07;;;25.00;99.90;;;-141.84;61.74;22475.09;5042528;28;20290;-61
2023/09/12 09:56:10;;;;;;;20.40;14.23;;;25.10;99.90;;;-141.84;62.09;22456.81;5042145;28;20313;-60
2023/09/12 09:58:47;;;;;;;16.25;14.65;;;25.10;99.90;;;-141.84;61.95;22513.75;5043807;28;20221;-61
2023/09/12 10:01:18;;;;;;;20.30;15.32;;;25.10;99.90;;;-141.84;60.75;22479.16;5045888;28;20252;-59
2023/09/12 10:03:48;;;;;;;18.20;14.38;;;25.10;99.90;;;-141.84;59.98;22548.31;5045717;28;20604;-59
2023/09/12 10:06:19;;;;;;;17.40;14.82;;;25.10;99.90;;;-141.84;60.22;22538.16;5038386;28;20256;-61
2023/09/12 10:08:52;;;;;;;17.08;14.35;;;25.10;99.90;;;-141.84;60.27;22568.66;5046738;28;20291;-60